createdAt,value
2023-03-26T00:01:13.773Z,100.00
2023-03-26T00:03:40.784Z,100.00
2023-03-26T00:06:14.530Z,100.00
2023-03-26T00:08:42.818Z,100.00
2023-03-26T00:11:11.154Z,100.00
2023-03-26T00:13:38.637Z,100.00
2023-03-26T00:16:05.637Z,100.00
2023-03-26T00:18:32.048Z,100.00
2023-03-26T00:20:59.497Z,100.00
2023-03-26T00:23:28.224Z,100.00
2023-03-26T00:25:56.123Z,100.00
2023-03-26T00:28:24.217Z,100.00
2023-03-26T00:30:58.716Z,100.00
2023-03-26T00:33:25.183Z,100.00
2023-03-26T00:35:58.682Z,100.00
2023-03-26T00:38:26.441Z,100.00
2023-03-26T00:40:53.259Z,100.00
2023-03-26T00:43:21.441Z,100.00
2023-03-26T00:45:49.924Z,100.00
2023-03-26T00:48:17.575Z,100.00
2023-03-26T00:50:46.254Z,100.00
2023-03-26T00:53:13.955Z,100.00
2023-03-26T00:55:45.757Z,100.00
2023-03-26T00:58:13.875Z,100.00
2023-03-26T01:00:50.738Z,100.00
2023-03-26T01:03:26.797Z,100.00
2023-03-26T01:06:08.332Z,100.00
2023-03-26T01:08:40.482Z,100.00
2023-03-26T01:11:21.906Z,100.00
2023-03-26T01:13:55.868Z,100.00
2023-03-26T01:16:37.026Z,100.00
2023-03-26T01:19:20.537Z,100.00
2023-03-26T01:21:47.284Z,100.00
2023-03-26T01:24:14.127Z,100.00
2023-03-26T01:26:57.639Z,100.00
2023-03-26T01:29:41.897Z,100.00
2023-03-26T01:32:45.792Z,100.00
2023-03-26T01:35:24.344Z,100.00
2023-03-26T01:38:10.672Z,100.00
2023-03-26T01:41:04.507Z,100.00
2023-03-26T01:43:59.054Z,100.00
2023-03-26T01:46:27.117Z,100.00
2023-03-26T01:48:55.346Z,100.00
2023-03-26T01:51:36.294Z,100.00
2023-03-26T01:54:06.055Z,100.00
2023-03-26T01:56:57.272Z,100.00
2023-03-26T01:59:35.669Z,100.00
2023-03-26T02:02:16.921Z,100.00
2023-03-26T02:04:53.125Z,100.00
2023-03-26T02:07:34.498Z,100.00
2023-03-26T02:10:10.378Z,100.00
2023-03-26T02:12:41.136Z,100.00
2023-03-26T02:15:08.296Z,100.00
2023-03-26T02:17:35.167Z,100.00
2023-03-26T02:20:05.803Z,100.00
2023-03-26T02:22:40.617Z,100.00
2023-03-26T02:25:11.902Z,100.00
2023-03-26T02:27:40.132Z,100.00
2023-03-26T02:30:15.310Z,100.00
2023-03-26T02:32:44.132Z,100.00
2023-03-26T02:35:12.620Z,100.00
2023-03-26T02:37:39.991Z,100.00
2023-03-26T02:40:14.820Z,100.00
2023-03-26T02:42:43.340Z,100.00
2023-03-26T02:45:09.876Z,100.00
2023-03-26T02:47:57.444Z,100.00
2023-03-26T02:50:42.932Z,100.00
2023-03-26T02:53:39.303Z,100.00
2023-03-26T02:56:39.721Z,100.00
2023-03-26T02:59:24.562Z,100.00
2023-03-26T03:02:13.233Z,100.00
2023-03-26T03:04:40.312Z,100.00
2023-03-26T03:07:07.626Z,100.00
2023-03-26T03:09:35.091Z,100.00
2023-03-26T03:12:20.602Z,100.00
2023-03-26T03:14:47.073Z,100.00
2023-03-26T03:17:13.501Z,100.00
2023-03-26T03:19:39.948Z,100.00
2023-03-26T03:22:06.792Z,100.00
2023-03-26T03:24:34.553Z,100.00
2023-03-26T03:27:01.935Z,100.00
2023-03-26T03:29:33.322Z,100.00
2023-03-26T03:32:22.357Z,100.00
2023-03-26T03:34:51.025Z,100.00
2023-03-26T03:37:19.356Z,100.00
2023-03-26T03:39:52.404Z,100.00
2023-03-26T03:42:21.380Z,100.00
2023-03-26T03:44:50.491Z,100.00
2023-03-26T03:47:39.778Z,100.00
2023-03-26T03:50:07.587Z,100.00
2023-03-26T03:52:35.370Z,100.00
2023-03-26T03:55:01.970Z,100.00
2023-03-26T03:57:46.027Z,100.00
2023-03-26T04:00:19.221Z,100.00
2023-03-26T04:02:58.690Z,100.00
2023-03-26T04:05:27.351Z,100.00
2023-03-26T04:07:53.816Z,100.00
2023-03-26T04:10:22.943Z,100.00
2023-03-26T04:13:05.206Z,100.00
2023-03-26T04:16:07.194Z,100.00
2023-03-26T04:18:36.590Z,100.00
2023-03-26T04:21:09.714Z,100.00
2023-03-26T04:23:36.338Z,100.00
2023-03-26T04:26:16.618Z,100.00
2023-03-26T04:29:11.778Z,100.00
2023-03-26T04:31:38.672Z,100.00
2023-03-26T04:34:13.464Z,100.00
2023-03-26T04:36:51.321Z,100.00
2023-03-26T04:39:19.098Z,100.00
2023-03-26T04:42:03.919Z,100.00
2023-03-26T04:44:42.444Z,100.00
2023-03-26T04:47:11.643Z,100.00
2023-03-26T04:49:45.583Z,100.00
2023-03-26T04:52:14.880Z,100.00
2023-03-26T04:55:19.377Z,100.00
2023-03-26T04:57:54.944Z,100.00
2023-03-26T05:00:42.060Z,100.00
2023-03-26T05:03:12.145Z,100.00
2023-03-26T05:05:39.958Z,100.00
2023-03-26T05:08:08.073Z,100.00
2023-03-26T05:10:34.932Z,100.00
2023-03-26T05:13:10.130Z,100.00
2023-03-26T05:15:39.488Z,100.00
2023-03-26T05:18:09.268Z,100.00
2023-03-26T05:20:46.866Z,100.00
2023-03-26T05:23:13.445Z,100.00
2023-03-26T05:25:42.793Z,100.00
2023-03-26T05:28:19.069Z,100.00
2023-03-26T05:30:54.451Z,100.00
2023-03-26T05:33:23.359Z,100.00
2023-03-26T05:36:01.441Z,100.00
2023-03-26T05:38:31.026Z,100.00
2023-03-26T05:41:04.690Z,100.00
2023-03-26T05:43:31.691Z,100.00
2023-03-26T05:46:06.291Z,100.00
2023-03-26T05:48:32.827Z,100.00
2023-03-26T05:51:00.210Z,100.00
2023-03-26T05:53:29.512Z,100.00
2023-03-26T05:56:14.833Z,100.00
2023-03-26T05:59:00.575Z,100.00
2023-03-26T06:01:46.032Z,100.00
2023-03-26T06:04:17.812Z,100.00
2023-03-26T06:07:10.449Z,100.00
2023-03-26T06:09:41.164Z,100.00
2023-03-26T06:12:09.475Z,100.00
2023-03-26T06:14:37.412Z,100.00
2023-03-26T06:17:11.439Z,100.00
2023-03-26T06:20:09.278Z,100.00
2023-03-26T06:22:41.660Z,100.00
2023-03-26T06:25:24.470Z,100.00
2023-03-26T06:27:59.720Z,100.00
2023-03-26T06:30:50.594Z,100.00
2023-03-26T06:33:39.404Z,100.00
2023-03-26T06:36:06.394Z,100.00
2023-03-26T06:38:33.443Z,100.00
2023-03-26T06:41:05.376Z,100.00
2023-03-26T06:43:58.502Z,100.00
2023-03-26T06:46:47.866Z,100.00
2023-03-26T06:49:34.248Z,100.00
2023-03-26T06:52:19.241Z,100.00
2023-03-26T06:54:45.631Z,100.00
2023-03-26T06:57:34.762Z,100.00
2023-03-26T07:00:37.375Z,100.00
2023-03-26T07:03:23.260Z,100.00
2023-03-26T07:06:09.015Z,100.00
2023-03-26T07:08:55.326Z,100.00
2023-03-26T07:11:40.347Z,100.00
2023-03-26T07:14:25.752Z,100.00
2023-03-26T07:17:07.953Z,100.00
2023-03-26T07:19:46.943Z,100.00
2023-03-26T07:22:21.728Z,100.00
2023-03-26T07:25:07.295Z,100.00
2023-03-26T07:27:56.259Z,100.00
2023-03-26T07:30:56.468Z,100.00
2023-03-26T07:33:46.803Z,100.00
2023-03-26T07:36:43.419Z,100.00
2023-03-26T07:39:47.960Z,100.00
2023-03-26T07:42:46.967Z,100.00
2023-03-26T07:45:41.641Z,100.00
2023-03-26T07:48:21.184Z,100.00
2023-03-26T07:51:00.017Z,100.00
2023-03-26T07:53:39.453Z,100.00
2023-03-26T07:56:38.521Z,100.00
2023-03-26T08:00:01.196Z,100.00
2023-03-26T08:03:04.260Z,100.00
2023-03-26T08:06:33.046Z,100.00
2023-03-26T08:09:13.238Z,100.00
2023-03-26T08:12:34.809Z,100.00
2023-03-26T08:15:19.082Z,100.00
2023-03-26T08:17:57.738Z,100.00
2023-03-26T08:20:47.755Z,100.00
2023-03-26T08:23:23.508Z,100.00
2023-03-26T08:25:57.357Z,100.00
2023-03-26T08:28:41.796Z,100.00
2023-03-26T08:31:11.133Z,100.00
2023-03-26T08:33:40.610Z,100.00
2023-03-26T08:36:09.510Z,100.00
2023-03-26T08:38:36.083Z,100.00
2023-03-26T08:41:08.736Z,100.00
2023-03-26T08:44:03.719Z,100.00
2023-03-26T08:47:01.067Z,100.00
2023-03-26T08:49:42.720Z,100.00
2023-03-26T08:52:24.450Z,100.00
2023-03-26T08:55:26.064Z,100.00
2023-03-26T08:58:15.955Z,100.00
2023-03-26T09:01:27.438Z,100.00
2023-03-26T09:04:16.071Z,100.00
2023-03-26T09:06:45.356Z,100.00
2023-03-26T09:09:36.813Z,100.00
2023-03-26T09:12:18.411Z,100.00
2023-03-26T09:15:06.520Z,100.00
2023-03-26T09:17:32.886Z,100.00
2023-03-26T09:20:30.663Z,100.00
2023-03-26T09:23:09.287Z,100.00
2023-03-26T09:26:00.247Z,100.00
2023-03-26T09:29:06.206Z,100.00
2023-03-26T09:32:00.633Z,100.00
2023-03-26T09:34:39.731Z,100.00
2023-03-26T09:37:17.974Z,100.00
2023-03-26T09:39:56.873Z,100.00
2023-03-26T09:42:26.260Z,100.00
2023-03-26T09:45:25.555Z,100.00
2023-03-26T09:48:30.675Z,100.00
2023-03-26T09:51:16.788Z,100.00
2023-03-26T09:54:06.576Z,100.00
2023-03-26T09:56:58.373Z,100.00
2023-03-26T09:59:49.892Z,100.00
2023-03-26T10:02:46.654Z,100.00
2023-03-26T10:05:27.786Z,100.00
2023-03-26T10:08:21.712Z,100.00
2023-03-26T10:11:03.063Z,100.00
2023-03-26T10:13:58.146Z,100.00
2023-03-26T10:16:31.054Z,100.00
2023-03-26T10:19:04.214Z,100.00
2023-03-26T10:21:47.286Z,100.00
2023-03-26T10:24:38.539Z,100.00
2023-03-26T10:27:28.225Z,100.00
2023-03-26T10:30:32.109Z,100.00
2023-03-26T10:33:13.714Z,100.00
2023-03-26T10:36:01.029Z,100.00
2023-03-26T10:38:46.371Z,100.00
2023-03-26T10:41:20.501Z,100.00
2023-03-26T10:44:08.690Z,100.00
2023-03-26T10:46:50.119Z,100.00
2023-03-26T10:49:33.185Z,100.00
2023-03-26T10:52:04.856Z,100.00
2023-03-26T10:54:56.987Z,100.00
2023-03-26T10:57:56.080Z,100.00
2023-03-26T11:00:28.837Z,100.00
2023-03-26T11:03:25.962Z,100.00
2023-03-26T11:06:14.067Z,100.00
2023-03-26T11:09:03.679Z,100.00
2023-03-26T11:11:44.798Z,100.00
2023-03-26T11:14:24.386Z,100.00
2023-03-26T11:17:40.273Z,100.00
2023-03-26T11:20:27.358Z,100.00
2023-03-26T11:23:21.372Z,100.00
2023-03-26T11:25:47.715Z,100.00
2023-03-26T11:29:03.911Z,100.00
2023-03-26T11:31:56.854Z,100.00
2023-03-26T11:34:31.004Z,100.00
2023-03-26T11:36:58.901Z,100.00
2023-03-26T11:39:30.893Z,100.00
2023-03-26T11:42:18.457Z,100.00
2023-03-26T11:45:01.074Z,100.00
2023-03-26T11:47:44.992Z,100.00
2023-03-26T11:50:18.418Z,100.00
2023-03-26T11:52:46.890Z,100.00
2023-03-26T11:55:13.913Z,100.00
2023-03-26T11:57:47.536Z,100.00
2023-03-26T12:00:21.071Z,100.00
2023-03-26T12:02:47.907Z,100.00
2023-03-26T12:05:19.464Z,100.00
2023-03-26T12:08:00.249Z,100.00
2023-03-26T12:10:38.735Z,100.00
2023-03-26T12:13:33.491Z,100.00
2023-03-26T12:16:10.852Z,100.00
2023-03-26T12:18:39.737Z,100.00
2023-03-26T12:21:19.349Z,100.00
2023-03-26T12:24:04.711Z,100.00
2023-03-26T12:26:46.225Z,100.00
2023-03-26T12:29:18.834Z,100.00
2023-03-26T12:31:55.682Z,100.00
2023-03-26T12:34:31.603Z,100.00
2023-03-26T12:37:02.319Z,100.00
2023-03-26T12:40:07.551Z,100.00
2023-03-26T12:44:46.871Z,100.00
2023-03-26T12:45:24.252Z,100.00
2023-03-26T12:48:01.409Z,100.00
2023-03-26T12:51:01.462Z,100.00
2023-03-26T12:53:33.769Z,100.00
2023-03-26T12:56:45.331Z,100.00
2023-03-26T12:59:57.061Z,100.00
2023-03-26T13:02:59.988Z,100.00
2023-03-26T13:05:42.421Z,100.00
2023-03-26T13:08:24.219Z,100.00
2023-03-26T13:10:50.850Z,100.00
2023-03-26T13:13:45.612Z,100.00
2023-03-26T13:16:22.191Z,100.00
2023-03-26T13:19:14.503Z,100.00
2023-03-26T13:21:47.195Z,100.00
2023-03-26T13:24:50.892Z,100.00
2023-03-26T13:27:38.826Z,100.00
2023-03-26T13:30:31.746Z,100.00
2023-03-26T13:33:46.034Z,100.00
2023-03-26T13:36:32.565Z,100.00
2023-03-26T13:39:10.669Z,100.00
2023-03-26T13:41:45.945Z,100.00
2023-03-26T13:44:31.010Z,100.00
2023-03-26T13:47:07.482Z,100.00
2023-03-26T13:49:41.484Z,100.00
2023-03-26T13:52:21.858Z,100.00
2023-03-26T13:55:19.418Z,100.00
2023-03-26T13:57:54.485Z,100.00
2023-03-26T14:00:27.415Z,100.00
2023-03-26T14:03:01.796Z,100.00
2023-03-26T14:05:39.289Z,100.00
2023-03-26T14:08:26.778Z,100.00
2023-03-26T14:11:06.248Z,100.00
2023-03-26T14:13:47.676Z,100.00
2023-03-26T14:16:32.689Z,100.00
2023-03-26T14:19:39.122Z,100.00
2023-03-26T14:22:11.571Z,100.00
2023-03-26T14:25:02.947Z,100.00
2023-03-26T14:28:05.434Z,100.00
2023-03-26T14:30:34.640Z,100.00
2023-03-26T14:33:40.145Z,100.00
2023-03-26T14:36:13.426Z,100.00
2023-03-26T14:39:16.584Z,100.00
2023-03-26T14:41:55.787Z,100.00
2023-03-26T14:44:28.211Z,100.00
2023-03-26T14:47:18.184Z,100.00
2023-03-26T14:50:13.676Z,100.00
2023-03-26T14:52:49.091Z,100.00
2023-03-26T14:55:36.752Z,100.00
2023-03-26T14:58:13.639Z,100.00
2023-03-26T15:01:03.884Z,100.00
2023-03-26T15:04:04.406Z,100.00
2023-03-26T15:07:06.800Z,100.00
2023-03-26T15:10:02.667Z,100.00
2023-03-26T15:12:59.695Z,100.00
2023-03-26T15:16:00.366Z,100.00
2023-03-26T15:18:47.894Z,100.00
2023-03-26T15:21:55.682Z,100.00
2023-03-26T15:24:43.444Z,100.00
2023-03-26T15:27:49.419Z,100.00
2023-03-26T15:30:42.096Z,100.00
2023-03-26T15:33:45.573Z,100.00
2023-03-26T15:36:34.397Z,100.00
2023-03-26T15:39:37.929Z,100.00
2023-03-26T15:42:12.555Z,100.00
2023-03-26T15:44:54.917Z,100.00
2023-03-26T15:47:36.595Z,100.00
2023-03-26T15:50:18.248Z,100.00
2023-03-26T15:53:06.492Z,100.00
2023-03-26T15:55:57.647Z,100.00
2023-03-26T15:59:14.311Z,100.00
2023-03-26T16:01:46.200Z,100.00
2023-03-26T16:04:25.028Z,100.00
2023-03-26T16:07:03.216Z,100.00
2023-03-26T16:09:50.925Z,100.00
2023-03-26T16:12:17.347Z,100.00
2023-03-26T16:14:47.343Z,100.00
2023-03-26T16:17:18.393Z,100.00
2023-03-26T16:19:49.553Z,100.00
2023-03-26T16:22:42.639Z,100.00
2023-03-26T16:25:29.480Z,100.00
2023-03-26T16:28:11.413Z,100.00
2023-03-26T16:30:38.339Z,100.00
2023-03-26T16:33:16.521Z,100.00
2023-03-26T16:36:18.288Z,100.00
2023-03-26T16:39:11.533Z,100.00
2023-03-26T16:41:49.904Z,100.00
2023-03-26T16:44:43.652Z,100.00
2023-03-26T16:47:19.259Z,100.00
2023-03-26T16:50:20.379Z,100.00
2023-03-26T16:53:13.313Z,100.00
2023-03-26T16:55:46.046Z,100.00
2023-03-26T16:58:27.650Z,100.00
2023-03-26T17:01:08.228Z,100.00
2023-03-26T17:03:54.049Z,100.00
2023-03-26T17:06:45.612Z,100.00
2023-03-26T17:09:31.518Z,100.00
2023-03-26T17:12:08.252Z,100.00
2023-03-26T17:14:56.465Z,100.00
2023-03-26T17:17:30.969Z,100.00
2023-03-26T17:20:08.953Z,100.00
2023-03-26T17:22:42.676Z,100.00
2023-03-26T17:25:37.223Z,100.00
2023-03-26T17:28:27.346Z,100.00
2023-03-26T17:31:20.034Z,99.42
2023-03-26T17:33:47.853Z,99.00
2023-03-26T17:36:30.337Z,97.77
2023-03-26T17:39:01.601Z,96.88
2023-03-26T17:41:52.426Z,95.50
2023-03-26T17:44:42.755Z,95.40
2023-03-26T17:47:42.143Z,94.16
2023-03-26T17:50:14.281Z,94.49
2023-03-26T17:52:58.457Z,94.39
2023-03-26T17:55:31.563Z,92.93
2023-03-26T17:58:00.189Z,93.38
2023-03-26T18:00:39.891Z,92.79
2023-03-26T18:03:14.198Z,92.59
2023-03-26T18:05:41.142Z,92.21
2023-03-26T18:08:36.934Z,92.56
2023-03-26T18:11:30.012Z,92.23
2023-03-26T18:14:07.966Z,91.64
2023-03-26T18:16:51.520Z,91.31
2023-03-26T18:19:22.642Z,89.92
2023-03-26T18:21:54.607Z,90.18
2023-03-26T18:24:28.281Z,89.89
2023-03-26T18:26:56.332Z,88.98
2023-03-26T18:29:26.285Z,89.28
2023-03-26T18:32:00.303Z,89.21
2023-03-26T18:34:29.554Z,88.49
2023-03-26T18:37:16.926Z,87.95
2023-03-26T18:40:12.024Z,88.02
2023-03-26T18:42:40.874Z,86.80
2023-03-26T18:45:16.812Z,86.51
2023-03-26T18:47:43.584Z,85.30
2023-03-26T18:50:15.837Z,83.94
2023-03-26T18:52:42.773Z,83.49
2023-03-26T18:55:14.053Z,84.07
2023-03-26T18:57:42.097Z,85.49
2023-03-26T19:00:19.779Z,84.99
2023-03-26T19:02:49.712Z,85.96
2023-03-26T19:05:17.624Z,85.45
2023-03-26T19:07:46.316Z,84.95
2023-03-26T19:10:21.104Z,85.77
2023-03-26T19:13:04.137Z,86.15
2023-03-26T19:15:34.511Z,84.09
2023-03-26T19:18:09.635Z,83.60
2023-03-26T19:20:41.927Z,83.03
2023-03-26T19:23:14.690Z,82.09
2023-03-26T19:25:47.338Z,82.92
2023-03-26T19:28:30.705Z,83.69
2023-03-26T19:31:27.045Z,84.37
2023-03-26T19:33:57.169Z,84.15
2023-03-26T19:36:30.275Z,83.08
2023-03-26T19:38:59.378Z,81.84
2023-03-26T19:41:31.715Z,80.69
2023-03-26T19:44:18.804Z,81.09
2023-03-26T19:46:53.695Z,79.63
2023-03-26T19:49:32.797Z,78.08
2023-03-26T19:52:15.212Z,77.42
2023-03-26T19:55:00.251Z,77.75
2023-03-26T19:57:29.065Z,76.57
2023-03-26T19:59:55.571Z,76.08
2023-03-26T20:02:22.631Z,77.94
2023-03-26T20:04:49.149Z,77.05
2023-03-26T20:07:22.051Z,75.71
2023-03-26T20:10:03.079Z,77.53
2023-03-26T20:12:29.584Z,76.32
2023-03-26T20:14:56.528Z,79.27
2023-03-26T20:17:22.941Z,77.13
2023-03-26T20:19:49.464Z,77.71
2023-03-26T20:22:20.535Z,75.96
2023-03-26T20:24:47.267Z,77.05
2023-03-26T20:27:14.126Z,76.73
2023-03-26T20:29:42.017Z,77.44
2023-03-26T20:32:23.061Z,76.09
2023-03-26T20:34:50.802Z,76.65
2023-03-26T20:37:17.358Z,76.68
2023-03-26T20:39:43.793Z,75.80
2023-03-26T20:42:12.444Z,76.10
2023-03-26T20:44:39.711Z,78.07
2023-03-26T20:47:06.193Z,76.47
2023-03-26T20:49:32.655Z,77.31
2023-03-26T20:52:00.331Z,77.67
2023-03-26T20:54:26.955Z,76.86
2023-03-26T20:56:54.240Z,76.83
2023-03-26T20:59:26.170Z,75.92
2023-03-26T21:01:54.543Z,74.65
2023-03-26T21:04:21.591Z,74.21
2023-03-26T21:06:48.748Z,73.51
2023-03-26T21:09:17.724Z,75.58
2023-03-26T21:11:52.496Z,73.84
2023-03-26T21:14:24.411Z,73.88
2023-03-26T21:16:51.523Z,75.23
2023-03-26T21:19:18.830Z,73.72
2023-03-26T21:21:56.017Z,74.44
2023-03-26T21:24:54.099Z,75.37
2023-03-26T21:27:26.816Z,74.36
2023-03-26T21:29:54.620Z,75.61
2023-03-26T21:32:22.559Z,76.26
2023-03-26T21:34:58.657Z,74.77
2023-03-26T21:37:26.563Z,74.66
2023-03-26T21:39:53.247Z,76.05
2023-03-26T21:42:19.996Z,74.70
2023-03-26T21:44:46.809Z,74.87
2023-03-26T21:47:13.954Z,76.61
2023-03-26T21:49:40.823Z,76.90
2023-03-26T21:52:11.625Z,77.25
2023-03-26T21:54:39.860Z,77.57
2023-03-26T21:57:25.401Z,76.57
2023-03-26T22:00:18.262Z,77.61
2023-03-26T22:03:18.478Z,79.05
2023-03-26T22:06:10.447Z,81.01
2023-03-26T22:08:39.689Z,81.82
2023-03-26T22:11:07.100Z,80.31
2023-03-26T22:13:38.335Z,81.29
2023-03-26T22:16:07.008Z,81.55
2023-03-26T22:18:33.673Z,81.81
2023-03-26T22:21:00.610Z,82.28
2023-03-26T22:23:27.814Z,81.73
2023-03-26T22:25:54.519Z,82.67
2023-03-26T22:28:20.890Z,82.35
2023-03-26T22:30:47.779Z,82.59
2023-03-26T22:33:14.222Z,83.11
2023-03-26T22:35:44.422Z,82.70
2023-03-26T22:38:11.640Z,83.90
2023-03-26T22:40:39.026Z,84.01
2023-03-26T22:43:05.395Z,83.76
2023-03-26T22:45:32.452Z,83.61
2023-03-26T22:48:03.007Z,83.60
2023-03-26T22:50:31.746Z,83.78
2023-03-26T22:52:58.162Z,82.80
2023-03-26T22:55:28.844Z,83.92
2023-03-26T22:57:56.191Z,84.42
2023-03-26T23:00:22.578Z,84.26
2023-03-26T23:02:49.842Z,83.89
2023-03-26T23:05:17.586Z,83.12
2023-03-26T23:07:45.936Z,83.87
2023-03-26T23:10:12.579Z,84.71
2023-03-26T23:12:39.461Z,84.21
2023-03-26T23:15:06.435Z,84.25
2023-03-26T23:17:34.930Z,84.43
2023-03-26T23:20:06.059Z,83.78
2023-03-26T23:22:32.448Z,84.45
2023-03-26T23:24:58.876Z,84.57
2023-03-26T23:27:25.268Z,83.83
2023-03-26T23:29:51.680Z,84.64
2023-03-26T23:32:23.439Z,84.19
2023-03-26T23:34:52.181Z,85.03
2023-03-26T23:37:22.846Z,85.83
2023-03-26T23:39:50.133Z,85.64
2023-03-26T23:42:16.940Z,84.60
2023-03-26T23:44:56.690Z,85.24
2023-03-26T23:47:23.390Z,84.38
2023-03-26T23:49:50.830Z,84.04
2023-03-26T23:52:17.255Z,85.27
2023-03-26T23:54:45.334Z,84.81
2023-03-26T23:57:12.138Z,86.21
2023-03-26T23:59:38.601Z,85.63
